sensor_id;sensor_type;location;lat;lon;timestamp;P1;durP1;ratioP1;P2;durP2;ratioP2
13592;SDS011;6867;50.998;4.250;2023-08-20T00:00:49;10.98;;;3.88;;
13592;SDS011;6867;50.998;4.250;2023-08-20T00:03:24;6.22;;;4.38;;
13592;SDS011;6867;50.998;4.250;2023-08-20T00:06:03;7.72;;;4.70;;
13592;SDS011;6867;50.998;4.250;2023-08-20T00:08:35;11.90;;;4.95;;
13592;SDS011;6867;50.998;4.250;2023-08-20T00:11:26;11.10;;;4.63;;
13592;SDS011;6867;50.998;4.250;2023-08-20T00:13:57;13.80;;;4.65;;
13592;SDS011;6867;50.998;4.250;2023-08-20T00:16:28;12.52;;;5.35;;
13592;SDS011;6867;50.998;4.250;2023-08-20T00:19:13;8.65;;;4.22;;
13592;SDS011;6867;50.998;4.250;2023-08-20T00:21:47;7.40;;;3.90;;
13592;SDS011;6867;50.998;4.250;2023-08-20T00:24:30;14.98;;;4.55;;
13592;SDS011;6867;50.998;4.250;2023-08-20T00:26:58;10.93;;;4.50;;
13592;SDS011;6867;50.998;4.250;2023-08-20T00:29:25;7.25;;;4.07;;
13592;SDS011;6867;50.998;4.250;2023-08-20T00:31:58;7.13;;;4.10;;
13592;SDS011;6867;50.998;4.250;2023-08-20T00:34:30;13.80;;;4.75;;
13592;SDS011;6867;50.998;4.250;2023-08-20T00:36:58;13.05;;;4.85;;
13592;SDS011;6867;50.998;4.250;2023-08-20T00:39:27;9.75;;;4.30;;
13592;SDS011;6867;50.998;4.250;2023-08-20T00:42:08;10.07;;;4.80;;
13592;SDS011;6867;50.998;4.250;2023-08-20T00:44:35;6.35;;;3.92;;
13592;SDS011;6867;50.998;4.250;2023-08-20T00:47:05;11.40;;;3.90;;
13592;SDS011;6867;50.998;4.250;2023-08-20T00:49:38;9.13;;;3.80;;
13592;SDS011;6867;50.998;4.250;2023-08-20T00:52:13;8.20;;;4.53;;
13592;SDS011;6867;50.998;4.250;2023-08-20T00:54:53;9.20;;;4.00;;
13592;SDS011;6867;50.998;4.250;2023-08-20T00:57:30;11.50;;;3.90;;
13592;SDS011;6867;50.998;4.250;2023-08-20T01:00:06;8.02;;;4.15;;
13592;SDS011;6867;50.998;4.250;2023-08-20T01:02:44;9.63;;;4.45;;
13592;SDS011;6867;50.998;4.250;2023-08-20T01:05:15;8.02;;;4.07;;
13592;SDS011;6867;50.998;4.250;2023-08-20T01:08:14;11.52;;;4.68;;
13592;SDS011;6867;50.998;4.250;2023-08-20T01:10:57;6.90;;;3.90;;
13592;SDS011;6867;50.998;4.250;2023-08-20T01:16:25;9.38;;;3.63;;
13592;SDS011;6867;50.998;4.250;2023-08-20T01:18:54;7.65;;;3.75;;
13592;SDS011;6867;50.998;4.250;2023-08-20T01:21:27;8.25;;;3.78;;
13592;SDS011;6867;50.998;4.250;2023-08-20T01:24:10;9.40;;;3.72;;
13592;SDS011;6867;50.998;4.250;2023-08-20T01:27:10;11.98;;;4.70;;
13592;SDS011;6867;50.998;4.250;2023-08-20T01:29:50;8.13;;;4.15;;
13592;SDS011;6867;50.998;4.250;2023-08-20T01:32:26;8.27;;;4.28;;
13592;SDS011;6867;50.998;4.250;2023-08-20T01:34:56;6.22;;;3.88;;
13592;SDS011;6867;50.998;4.250;2023-08-20T01:37:28;9.85;;;4.13;;
13592;SDS011;6867;50.998;4.250;2023-08-20T01:40:12;11.98;;;5.30;;
13592;SDS011;6867;50.998;4.250;2023-08-20T01:42:41;9.00;;;4.53;;
13592;SDS011;6867;50.998;4.250;2023-08-20T01:45:11;9.82;;;4.35;;
13592;SDS011;6867;50.998;4.250;2023-08-20T01:47:44;9.55;;;4.60;;
13592;SDS011;6867;50.998;4.250;2023-08-20T01:50:20;10.57;;;5.13;;
13592;SDS011;6867;50.998;4.250;2023-08-20T01:53:13;11.05;;;4.22;;
13592;SDS011;6867;50.998;4.250;2023-08-20T01:55:49;12.07;;;4.10;;
13592;SDS011;6867;50.998;4.250;2023-08-20T01:58:22;6.30;;;3.90;;
13592;SDS011;6867;50.998;4.250;2023-08-20T02:00:54;9.85;;;4.75;;
13592;SDS011;6867;50.998;4.250;2023-08-20T02:03:30;9.23;;;4.78;;
13592;SDS011;6867;50.998;4.250;2023-08-20T02:06:24;12.18;;;4.20;;
13592;SDS011;6867;50.998;4.250;2023-08-20T02:09:14;11.35;;;3.92;;
13592;SDS011;6867;50.998;4.250;2023-08-20T02:11:45;8.48;;;4.10;;
13592;SDS011;6867;50.998;4.250;2023-08-20T02:14:27;12.23;;;4.35;;
13592;SDS011;6867;50.998;4.250;2023-08-20T02:17:09;7.90;;;3.67;;
13592;SDS011;6867;50.998;4.250;2023-08-20T02:19:44;9.00;;;3.78;;
13592;SDS011;6867;50.998;4.250;2023-08-20T02:22:13;8.88;;;4.72;;
13592;SDS011;6867;50.998;4.250;2023-08-20T02:24:41;9.13;;;4.28;;
13592;SDS011;6867;50.998;4.250;2023-08-20T02:27:10;11.90;;;5.03;;
13592;SDS011;6867;50.998;4.250;2023-08-20T02:29:38;6.82;;;3.58;;
13592;SDS011;6867;50.998;4.250;2023-08-20T02:32:14;10.55;;;4.13;;
13592;SDS011;6867;50.998;4.250;2023-08-20T02:34:43;11.15;;;4.57;;
13592;SDS011;6867;50.998;4.250;2023-08-20T02:37:21;8.30;;;4.35;;
13592;SDS011;6867;50.998;4.250;2023-08-20T02:39:58;9.23;;;3.83;;
13592;SDS011;6867;50.998;4.250;2023-08-20T02:42:27;8.70;;;3.88;;
13592;SDS011;6867;50.998;4.250;2023-08-20T02:44:56;10.02;;;4.32;;
13592;SDS011;6867;50.998;4.250;2023-08-20T02:47:27;6.28;;;4.30;;
13592;SDS011;6867;50.998;4.250;2023-08-20T02:49:59;11.63;;;4.05;;
13592;SDS011;6867;50.998;4.250;2023-08-20T02:52:32;6.50;;;3.70;;
13592;SDS011;6867;50.998;4.250;2023-08-20T02:55:02;7.68;;;4.22;;
13592;SDS011;6867;50.998;4.250;2023-08-20T02:57:36;6.85;;;3.50;;
13592;SDS011;6867;50.998;4.250;2023-08-20T03:00:04;4.05;;;3.10;;
13592;SDS011;6867;50.998;4.250;2023-08-20T03:05:53;7.97;;;4.05;;
13592;SDS011;6867;50.998;4.250;2023-08-20T03:08:26;8.77;;;3.42;;
13592;SDS011;6867;50.998;4.250;2023-08-20T03:10:54;9.77;;;3.78;;
13592;SDS011;6867;50.998;4.250;2023-08-20T03:13:23;6.03;;;3.95;;
13592;SDS011;6867;50.998;4.250;2023-08-20T03:16:04;9.55;;;4.10;;
13592;SDS011;6867;50.998;4.250;2023-08-20T03:18:37;7.88;;;4.13;;
13592;SDS011;6867;50.998;4.250;2023-08-20T03:21:33;7.05;;;4.10;;
13592;SDS011;6867;50.998;4.250;2023-08-20T03:24:02;9.90;;;4.57;;
13592;SDS011;6867;50.998;4.250;2023-08-20T03:26:38;6.53;;;3.67;;
13592;SDS011;6867;50.998;4.250;2023-08-20T03:29:06;10.30;;;4.00;;
13592;SDS011;6867;50.998;4.250;2023-08-20T03:31:51;6.90;;;3.42;;
13592;SDS011;6867;50.998;4.250;2023-08-20T03:34:36;9.45;;;4.22;;
13592;SDS011;6867;50.998;4.250;2023-08-20T03:37:04;10.20;;;3.85;;
13592;SDS011;6867;50.998;4.250;2023-08-20T03:39:33;6.15;;;3.92;;
13592;SDS011;6867;50.998;4.250;2023-08-20T03:42:17;11.70;;;4.57;;
13592;SDS011;6867;50.998;4.250;2023-08-20T03:44:46;8.40;;;3.92;;
13592;SDS011;6867;50.998;4.250;2023-08-20T03:47:14;6.57;;;4.05;;
13592;SDS011;6867;50.998;4.250;2023-08-20T03:49:47;12.93;;;3.70;;
13592;SDS011;6867;50.998;4.250;2023-08-20T03:52:18;16.98;;;4.85;;
13592;SDS011;6867;50.998;4.250;2023-08-20T03:54:49;7.80;;;3.90;;
13592;SDS011;6867;50.998;4.250;2023-08-20T03:57:18;8.82;;;4.15;;
13592;SDS011;6867;50.998;4.250;2023-08-20T03:59:47;7.03;;;4.35;;
13592;SDS011;6867;50.998;4.250;2023-08-20T04:02:15;11.10;;;4.18;;
13592;SDS011;6867;50.998;4.250;2023-08-20T04:05:06;6.35;;;3.83;;
13592;SDS011;6867;50.998;4.250;2023-08-20T04:07:49;12.70;;;4.32;;
13592;SDS011;6867;50.998;4.250;2023-08-20T04:10:25;4.88;;;3.45;;
13592;SDS011;6867;50.998;4.250;2023-08-20T04:12:55;8.82;;;4.03;;
13592;SDS011;6867;50.998;4.250;2023-08-20T04:15:38;7.60;;;4.05;;
13592;SDS011;6867;50.998;4.250;2023-08-20T04:18:09;12.63;;;4.90;;
13592;SDS011;6867;50.998;4.250;2023-08-20T04:21:06;12.90;;;4.45;;
13592;SDS011;6867;50.998;4.250;2023-08-20T04:23:35;11.93;;;4.03;;
13592;SDS011;6867;50.998;4.250;2023-08-20T04:26:08;6.78;;;4.10;;
13592;SDS011;6867;50.998;4.250;2023-08-20T04:28:45;6.68;;;3.47;;
13592;SDS011;6867;50.998;4.250;2023-08-20T04:34:07;6.25;;;3.90;;
13592;SDS011;6867;50.998;4.250;2023-08-20T04:36:38;5.35;;;3.65;;
13592;SDS011;6867;50.998;4.250;2023-08-20T04:39:25;6.55;;;4.03;;
13592;SDS011;6867;50.998;4.250;2023-08-20T04:41:53;6.88;;;4.43;;
13592;SDS011;6867;50.998;4.250;2023-08-20T04:44:22;11.15;;;4.18;;
13592;SDS011;6867;50.998;4.250;2023-08-20T04:46:57;11.07;;;3.90;;
13592;SDS011;6867;50.998;4.250;2023-08-20T04:49:24;8.68;;;4.07;;
13592;SDS011;6867;50.998;4.250;2023-08-20T04:51:58;9.85;;;4.13;;
13592;SDS011;6867;50.998;4.250;2023-08-20T04:54:30;7.63;;;4.13;;
13592;SDS011;6867;50.998;4.250;2023-08-20T04:57:38;6.72;;;4.00;;
13592;SDS011;6867;50.998;4.250;2023-08-20T05:00:08;7.63;;;4.57;;
13592;SDS011;6867;50.998;4.250;2023-08-20T05:02:38;7.25;;;3.78;;
13592;SDS011;6867;50.998;4.250;2023-08-20T05:05:08;15.07;;;5.10;;
13592;SDS011;6867;50.998;4.250;2023-08-20T05:07:58;8.82;;;3.85;;
13592;SDS011;6867;50.998;4.250;2023-08-20T05:10:27;7.47;;;3.75;;
13592;SDS011;6867;50.998;4.250;2023-08-20T05:12:56;8.75;;;3.60;;
13592;SDS011;6867;50.998;4.250;2023-08-20T05:15:25;4.85;;;3.70;;
13592;SDS011;6867;50.998;4.250;2023-08-20T05:18:02;7.72;;;3.55;;
13592;SDS011;6867;50.998;4.250;2023-08-20T05:20:30;6.43;;;3.65;;
13592;SDS011;6867;50.998;4.250;2023-08-20T05:23:05;4.75;;;3.80;;
13592;SDS011;6867;50.998;4.250;2023-08-20T05:25:35;4.60;;;3.58;;
13592;SDS011;6867;50.998;4.250;2023-08-20T05:28:03;8.40;;;4.30;;
13592;SDS011;6867;50.998;4.250;2023-08-20T05:30:35;6.43;;;3.78;;
13592;SDS011;6867;50.998;4.250;2023-08-20T05:33:03;7.40;;;3.38;;
13592;SDS011;6867;50.998;4.250;2023-08-20T05:35:41;4.80;;;3.10;;
13592;SDS011;6867;50.998;4.250;2023-08-20T05:38:14;6.00;;;3.08;;
13592;SDS011;6867;50.998;4.250;2023-08-20T05:41:01;7.55;;;3.50;;
13592;SDS011;6867;50.998;4.250;2023-08-20T05:43:47;6.60;;;4.45;;
13592;SDS011;6867;50.998;4.250;2023-08-20T05:46:22;6.38;;;3.67;;
13592;SDS011;6867;50.998;4.250;2023-08-20T05:49:03;9.95;;;4.68;;
13592;SDS011;6867;50.998;4.250;2023-08-20T05:51:47;7.53;;;3.70;;
13592;SDS011;6867;50.998;4.250;2023-08-20T05:54:27;8.35;;;4.18;;
13592;SDS011;6867;50.998;4.250;2023-08-20T05:56:57;10.00;;;4.00;;
13592;SDS011;6867;50.998;4.250;2023-08-20T05:59:33;8.15;;;4.55;;
13592;SDS011;6867;50.998;4.250;2023-08-20T06:02:02;11.60;;;4.63;;
13592;SDS011;6867;50.998;4.250;2023-08-20T06:04:53;9.60;;;4.50;;
13592;SDS011;6867;50.998;4.250;2023-08-20T06:07:35;11.52;;;5.05;;
13592;SDS011;6867;50.998;4.250;2023-08-20T06:10:19;10.98;;;5.60;;
13592;SDS011;6867;50.998;4.250;2023-08-20T06:12:49;7.80;;;4.18;;
13592;SDS011;6867;50.998;4.250;2023-08-20T06:15:18;6.65;;;4.22;;
13592;SDS011;6867;50.998;4.250;2023-08-20T06:18:02;10.88;;;4.43;;
13592;SDS011;6867;50.998;4.250;2023-08-20T06:20:31;9.35;;;4.45;;
13592;SDS011;6867;50.998;4.250;2023-08-20T06:23:00;9.23;;;4.88;;
13592;SDS011;6867;50.998;4.250;2023-08-20T06:25:36;11.10;;;4.35;;
13592;SDS011;6867;50.998;4.250;2023-08-20T06:28:03;9.68;;;4.00;;
13592;SDS011;6867;50.998;4.250;2023-08-20T06:30:31;10.43;;;3.88;;
13592;SDS011;6867;50.998;4.250;2023-08-20T06:33:10;13.27;;;4.47;;
13592;SDS011;6867;50.998;4.250;2023-08-20T06:35:47;9.80;;;4.53;;
13592;SDS011;6867;50.998;4.250;2023-08-20T06:38:15;9.10;;;4.18;;
13592;SDS011;6867;50.998;4.250;2023-08-20T06:40:48;17.60;;;4.43;;
13592;SDS011;6867;50.998;4.250;2023-08-20T06:43:29;12.40;;;4.63;;
13592;SDS011;6867;50.998;4.250;2023-08-20T06:45:57;9.05;;;3.22;;
13592;SDS011;6867;50.998;4.250;2023-08-20T06:48:27;7.72;;;3.03;;
13592;SDS011;6867;50.998;4.250;2023-08-20T06:50:56;5.97;;;3.00;;
13592;SDS011;6867;50.998;4.250;2023-08-20T06:53:24;6.18;;;2.60;;
13592;SDS011;6867;50.998;4.250;2023-08-20T06:55:57;12.13;;;2.95;;
13592;SDS011;6867;50.998;4.250;2023-08-20T06:58:33;5.75;;;2.40;;
13592;SDS011;6867;50.998;4.250;2023-08-20T07:01:02;7.38;;;2.25;;
13592;SDS011;6867;50.998;4.250;2023-08-20T07:03:38;4.95;;;1.75;;
13592;SDS011;6867;50.998;4.250;2023-08-20T07:06:21;6.78;;;2.03;;
13592;SDS011;6867;50.998;4.250;2023-08-20T07:08:58;6.43;;;2.03;;
13592;SDS011;6867;50.998;4.250;2023-08-20T07:11:36;5.10;;;1.77;;
13592;SDS011;6867;50.998;4.250;2023-08-20T07:14:05;9.57;;;2.03;;
13592;SDS011;6867;50.998;4.250;2023-08-20T07:16:44;5.10;;;1.67;;
13592;SDS011;6867;50.998;4.250;2023-08-20T07:19:14;4.05;;;1.50;;
13592;SDS011;6867;50.998;4.250;2023-08-20T07:21:53;8.10;;;2.00;;
13592;SDS011;6867;50.998;4.250;2023-08-20T07:24:29;4.88;;;2.28;;
13592;SDS011;6867;50.998;4.250;2023-08-20T07:27:38;5.03;;;1.75;;
13592;SDS011;6867;50.998;4.250;2023-08-20T07:30:19;3.50;;;1.58;;
13592;SDS011;6867;50.998;4.250;2023-08-20T07:32:47;6.90;;;1.75;;
13592;SDS011;6867;50.998;4.250;2023-08-20T07:35:16;6.28;;;1.63;;
13592;SDS011;6867;50.998;4.250;2023-08-20T07:37:45;6.13;;;1.58;;
13592;SDS011;6867;50.998;4.250;2023-08-20T07:40:14;6.47;;;1.63;;
13592;SDS011;6867;50.998;4.250;2023-08-20T07:42:47;7.72;;;2.00;;
13592;SDS011;6867;50.998;4.250;2023-08-20T07:45:15;8.00;;;2.45;;
13592;SDS011;6867;50.998;4.250;2023-08-20T07:48:18;4.18;;;1.60;;
13592;SDS011;6867;50.998;4.250;2023-08-20T07:51:14;6.15;;;1.50;;
13592;SDS011;6867;50.998;4.250;2023-08-20T07:53:53;5.88;;;1.58;;
13592;SDS011;6867;50.998;4.250;2023-08-20T07:56:23;8.45;;;1.73;;
13592;SDS011;6867;50.998;4.250;2023-08-20T07:58:53;4.60;;;1.63;;
13592;SDS011;6867;50.998;4.250;2023-08-20T08:01:26;4.57;;;1.38;;
13592;SDS011;6867;50.998;4.250;2023-08-20T08:03:59;4.43;;;1.35;;
13592;SDS011;6867;50.998;4.250;2023-08-20T08:06:30;6.30;;;2.10;;
13592;SDS011;6867;50.998;4.250;2023-08-20T08:11:51;7.38;;;2.28;;
13592;SDS011;6867;50.998;4.250;2023-08-20T08:14:24;7.03;;;2.15;;
13592;SDS011;6867;50.998;4.250;2023-08-20T08:17:10;6.20;;;2.10;;
13592;SDS011;6867;50.998;4.250;2023-08-20T08:19:46;9.55;;;2.10;;
13592;SDS011;6867;50.998;4.250;2023-08-20T08:22:21;4.45;;;1.85;;
13592;SDS011;6867;50.998;4.250;2023-08-20T08:24:50;5.85;;;1.95;;
13592;SDS011;6867;50.998;4.250;2023-08-20T08:27:22;6.53;;;1.98;;
13592;SDS011;6867;50.998;4.250;2023-08-20T08:29:53;5.85;;;1.92;;
13592;SDS011;6867;50.998;4.250;2023-08-20T08:32:28;4.78;;;1.77;;
13592;SDS011;6867;50.998;4.250;2023-08-20T08:35:20;5.35;;;1.65;;
13592;SDS011;6867;50.998;4.250;2023-08-20T08:37:53;6.55;;;1.65;;
13592;SDS011;6867;50.998;4.250;2023-08-20T08:40:59;4.50;;;1.45;;
13592;SDS011;6867;50.998;4.250;2023-08-20T08:43:37;4.53;;;1.67;;
13592;SDS011;6867;50.998;4.250;2023-08-20T08:46:16;4.53;;;1.70;;
13592;SDS011;6867;50.998;4.250;2023-08-20T08:49:02;3.50;;;1.30;;
13592;SDS011;6867;50.998;4.250;2023-08-20T08:51:31;4.88;;;1.45;;
13592;SDS011;6867;50.998;4.250;2023-08-20T08:54:05;3.58;;;1.35;;
13592;SDS011;6867;50.998;4.250;2023-08-20T08:56:35;3.35;;;1.65;;
13592;SDS011;6867;50.998;4.250;2023-08-20T08:59:17;3.17;;;1.60;;
13592;SDS011;6867;50.998;4.250;2023-08-20T09:01:51;5.32;;;1.45;;
13592;SDS011;6867;50.998;4.250;2023-08-20T09:04:22;6.95;;;1.80;;
13592;SDS011;6867;50.998;4.250;2023-08-20T09:06:51;3.70;;;1.38;;
13592;SDS011;6867;50.998;4.250;2023-08-20T09:09:20;3.03;;;1.20;;
13592;SDS011;6867;50.998;4.250;2023-08-20T09:11:50;3.33;;;1.20;;
13592;SDS011;6867;50.998;4.250;2023-08-20T09:14:20;2.05;;;1.10;;
13592;SDS011;6867;50.998;4.250;2023-08-20T09:16:57;5.35;;;1.40;;
13592;SDS011;6867;50.998;4.250;2023-08-20T09:19:34;3.33;;;1.33;;
13592;SDS011;6867;50.998;4.250;2023-08-20T09:22:04;3.15;;;1.08;;
13592;SDS011;6867;50.998;4.250;2023-08-20T09:24:38;4.72;;;1.58;;
13592;SDS011;6867;50.998;4.250;2023-08-20T09:27:09;1.58;;;1.05;;
13592;SDS011;6867;50.998;4.250;2023-08-20T09:29:43;7.30;;;1.65;;
13592;SDS011;6867;50.998;4.250;2023-08-20T09:35:48;3.92;;;1.40;;
13592;SDS011;6867;50.998;4.250;2023-08-20T09:38:28;2.63;;;1.15;;
13592;SDS011;6867;50.998;4.250;2023-08-20T09:40:59;3.10;;;1.00;;
13592;SDS011;6867;50.998;4.250;2023-08-20T09:43:27;3.13;;;1.38;;
13592;SDS011;6867;50.998;4.250;2023-08-20T09:46:03;2.63;;;1.10;;
13592;SDS011;6867;50.998;4.250;2023-08-20T09:51:19;2.03;;;0.90;;
13592;SDS011;6867;50.998;4.250;2023-08-20T09:54:00;5.32;;;1.17;;
13592;SDS011;6867;50.998;4.250;2023-08-20T09:57:21;1.92;;;0.90;;
13592;SDS011;6867;50.998;4.250;2023-08-20T09:59:57;2.70;;;1.00;;
13592;SDS011;6867;50.998;4.250;2023-08-20T10:02:26;3.00;;;0.98;;
13592;SDS011;6867;50.998;4.250;2023-08-20T10:04:56;4.63;;;1.45;;
13592;SDS011;6867;50.998;4.250;2023-08-20T10:07:27;3.70;;;1.52;;
13592;SDS011;6867;50.998;4.250;2023-08-20T10:09:58;2.40;;;0.90;;
13592;SDS011;6867;50.998;4.250;2023-08-20T10:12:28;3.03;;;0.90;;
13592;SDS011;6867;50.998;4.250;2023-08-20T10:14:57;2.28;;;0.90;;
13592;SDS011;6867;50.998;4.250;2023-08-20T10:17:42;5.82;;;1.33;;
13592;SDS011;6867;50.998;4.250;2023-08-20T10:20:17;5.13;;;1.05;;
13592;SDS011;6867;50.998;4.250;2023-08-20T10:22:49;4.65;;;0.90;;
13592;SDS011;6867;50.998;4.250;2023-08-20T10:25:25;1.63;;;0.60;;
13592;SDS011;6867;50.998;4.250;2023-08-20T10:27:54;2.58;;;0.80;;
13592;SDS011;6867;50.998;4.250;2023-08-20T10:33:47;2.97;;;0.70;;
13592;SDS011;6867;50.998;4.250;2023-08-20T10:36:26;1.58;;;0.60;;
13592;SDS011;6867;50.998;4.250;2023-08-20T10:39:12;1.45;;;0.52;;
13592;SDS011;6867;50.998;4.250;2023-08-20T10:42:08;1.70;;;0.70;;
13592;SDS011;6867;50.998;4.250;2023-08-20T10:45:05;1.65;;;0.57;;
13592;SDS011;6867;50.998;4.250;2023-08-20T10:47:42;1.58;;;0.80;;
13592;SDS011;6867;50.998;4.250;2023-08-20T10:50:15;4.45;;;1.00;;
13592;SDS011;6867;50.998;4.250;2023-08-20T10:52:50;3.60;;;0.80;;
13592;SDS011;6867;50.998;4.250;2023-08-20T10:55:34;2.92;;;0.80;;
13592;SDS011;6867;50.998;4.250;2023-08-20T10:58:07;2.05;;;0.80;;
13592;SDS011;6867;50.998;4.250;2023-08-20T11:03:44;2.10;;;0.98;;
13592;SDS011;6867;50.998;4.250;2023-08-20T11:06:16;2.05;;;0.90;;
13592;SDS011;6867;50.998;4.250;2023-08-20T11:09:00;1.42;;;0.80;;
13592;SDS011;6867;50.998;4.250;2023-08-20T11:11:31;5.90;;;1.35;;
13592;SDS011;6867;50.998;4.250;2023-08-20T11:14:20;2.88;;;0.93;;
13592;SDS011;6867;50.998;4.250;2023-08-20T11:16:56;2.97;;;0.93;;
13592;SDS011;6867;50.998;4.250;2023-08-20T11:19:24;2.80;;;1.10;;
13592;SDS011;6867;50.998;4.250;2023-08-20T11:21:56;3.00;;;0.98;;
13592;SDS011;6867;50.998;4.250;2023-08-20T11:24:34;2.30;;;0.90;;
13592;SDS011;6867;50.998;4.250;2023-08-20T11:27:12;1.40;;;0.73;;
13592;SDS011;6867;50.998;4.250;2023-08-20T11:29:55;2.65;;;0.93;;
13592;SDS011;6867;50.998;4.250;2023-08-20T11:32:25;2.05;;;1.02;;
13592;SDS011;6867;50.998;4.250;2023-08-20T11:34:53;2.90;;;1.00;;
13592;SDS011;6867;50.998;4.250;2023-08-20T11:37:25;2.13;;;0.98;;
13592;SDS011;6867;50.998;4.250;2023-08-20T11:40:21;3.40;;;1.05;;
13592;SDS011;6867;50.998;4.250;2023-08-20T11:42:49;2.42;;;0.77;;
13592;SDS011;6867;50.998;4.250;2023-08-20T11:45:18;2.85;;;1.00;;
13592;SDS011;6867;50.998;4.250;2023-08-20T11:47:55;1.85;;;0.98;;
13592;SDS011;6867;50.998;4.250;2023-08-20T11:50:28;2.17;;;0.98;;
13592;SDS011;6867;50.998;4.250;2023-08-20T11:52:55;3.60;;;0.88;;
13592;SDS011;6867;50.998;4.250;2023-08-20T11:55:31;2.83;;;1.10;;
13592;SDS011;6867;50.998;4.250;2023-08-20T11:58:09;3.08;;;1.00;;
13592;SDS011;6867;50.998;4.250;2023-08-20T12:00:39;2.58;;;0.82;;
13592;SDS011;6867;50.998;4.250;2023-08-20T12:03:21;3.13;;;0.88;;
13592;SDS011;6867;50.998;4.250;2023-08-20T12:05:49;3.92;;;1.15;;
13592;SDS011;6867;50.998;4.250;2023-08-20T12:08:27;3.90;;;1.02;;
13592;SDS011;6867;50.998;4.250;2023-08-20T12:11:01;1.73;;;0.82;;
13592;SDS011;6867;50.998;4.250;2023-08-20T12:13:39;3.85;;;1.13;;
13592;SDS011;6867;50.998;4.250;2023-08-20T12:16:37;2.70;;;1.02;;
13592;SDS011;6867;50.998;4.250;2023-08-20T12:19:08;1.77;;;1.02;;
13592;SDS011;6867;50.998;4.250;2023-08-20T12:21:50;3.78;;;1.25;;
13592;SDS011;6867;50.998;4.250;2023-08-20T12:24:25;3.10;;;1.08;;
13592;SDS011;6867;50.998;4.250;2023-08-20T12:27:04;3.95;;;0.93;;
13592;SDS011;6867;50.998;4.250;2023-08-20T12:29:38;5.03;;;1.20;;
13592;SDS011;6867;50.998;4.250;2023-08-20T12:32:06;4.45;;;1.10;;
13592;SDS011;6867;50.998;4.250;2023-08-20T12:34:38;3.03;;;1.15;;
13592;SDS011;6867;50.998;4.250;2023-08-20T12:37:20;2.55;;;0.88;;
13592;SDS011;6867;50.998;4.250;2023-08-20T12:39:58;3.03;;;1.08;;
13592;SDS011;6867;50.998;4.250;2023-08-20T12:45:11;2.13;;;1.05;;
13592;SDS011;6867;50.998;4.250;2023-08-20T12:47:49;2.45;;;1.13;;
13592;SDS011;6867;50.998;4.250;2023-08-20T12:50:23;2.47;;;1.17;;
13592;SDS011;6867;50.998;4.250;2023-08-20T12:52:56;3.22;;;0.88;;
13592;SDS011;6867;50.998;4.250;2023-08-20T12:55:25;3.97;;;1.10;;
13592;SDS011;6867;50.998;4.250;2023-08-20T12:57:57;2.70;;;0.90;;
13592;SDS011;6867;50.998;4.250;2023-08-20T13:00:27;2.22;;;1.60;;
13592;SDS011;6867;50.998;4.250;2023-08-20T13:02:56;1.55;;;0.80;;
13592;SDS011;6867;50.998;4.250;2023-08-20T13:05:38;2.65;;;1.15;;
13592;SDS011;6867;50.998;4.250;2023-08-20T13:08:07;1.27;;;0.90;;
13592;SDS011;6867;50.998;4.250;2023-08-20T13:10:53;2.47;;;1.00;;
13592;SDS011;6867;50.998;4.250;2023-08-20T13:13:24;2.55;;;0.90;;
13592;SDS011;6867;50.998;4.250;2023-08-20T13:15:53;3.45;;;1.10;;
13592;SDS011;6867;50.998;4.250;2023-08-20T13:18:22;3.28;;;0.93;;
13592;SDS011;6867;50.998;4.250;2023-08-20T13:20:51;3.40;;;1.25;;
13592;SDS011;6867;50.998;4.250;2023-08-20T13:23:19;1.42;;;0.90;;
13592;SDS011;6867;50.998;4.250;2023-08-20T13:25:48;2.80;;;0.98;;
13592;SDS011;6867;50.998;4.250;2023-08-20T13:28:16;2.75;;;1.17;;
13592;SDS011;6867;50.998;4.250;2023-08-20T13:30:48;2.15;;;1.20;;
13592;SDS011;6867;50.998;4.250;2023-08-20T13:33:19;4.68;;;1.02;;
13592;SDS011;6867;50.998;4.250;2023-08-20T13:35:47;2.50;;;1.00;;
13592;SDS011;6867;50.998;4.250;2023-08-20T13:38:37;2.10;;;1.17;;
13592;SDS011;6867;50.998;4.250;2023-08-20T13:41:14;3.25;;;1.10;;
13592;SDS011;6867;50.998;4.250;2023-08-20T13:43:42;3.05;;;1.27;;
13592;SDS011;6867;50.998;4.250;2023-08-20T13:46:12;3.67;;;1.15;;
13592;SDS011;6867;50.998;4.250;2023-08-20T13:48:42;2.28;;;0.90;;
13592;SDS011;6867;50.998;4.250;2023-08-20T13:51:20;1.52;;;0.95;;
13592;SDS011;6867;50.998;4.250;2023-08-20T13:53:56;2.03;;;1.00;;
13592;SDS011;6867;50.998;4.250;2023-08-20T13:56:32;2.10;;;1.05;;
13592;SDS011;6867;50.998;4.250;2023-08-20T13:59:08;3.10;;;1.10;;
13592;SDS011;6867;50.998;4.250;2023-08-20T14:01:43;4.43;;;1.33;;
13592;SDS011;6867;50.998;4.250;2023-08-20T14:04:20;2.17;;;0.82;;
13592;SDS011;6867;50.998;4.250;2023-08-20T14:06:49;3.75;;;1.30;;
13592;SDS011;6867;50.998;4.250;2023-08-20T14:09:17;2.40;;;1.10;;
13592;SDS011;6867;50.998;4.250;2023-08-20T14:11:46;1.90;;;1.17;;
13592;SDS011;6867;50.998;4.250;2023-08-20T14:14:42;5.10;;;1.00;;
13592;SDS011;6867;50.998;4.250;2023-08-20T14:17:22;2.47;;;0.93;;
13592;SDS011;6867;50.998;4.250;2023-08-20T14:20:07;3.20;;;1.08;;
13592;SDS011;6867;50.998;4.250;2023-08-20T14:22:37;3.28;;;1.20;;
13592;SDS011;6867;50.998;4.250;2023-08-20T14:25:07;2.50;;;0.82;;
13592;SDS011;6867;50.998;4.250;2023-08-20T14:27:39;3.28;;;1.38;;
13592;SDS011;6867;50.998;4.250;2023-08-20T14:30:16;2.40;;;1.00;;
13592;SDS011;6867;50.998;4.250;2023-08-20T14:32:47;3.45;;;1.10;;
13592;SDS011;6867;50.998;4.250;2023-08-20T14:35:30;2.08;;;0.90;;
13592;SDS011;6867;50.998;4.250;2023-08-20T14:37:59;4.47;;;1.23;;
13592;SDS011;6867;50.998;4.250;2023-08-20T14:40:36;3.03;;;0.90;;
13592;SDS011;6867;50.998;4.250;2023-08-20T14:43:13;3.30;;;1.08;;
13592;SDS011;6867;50.998;4.250;2023-08-20T14:46:12;4.00;;;1.10;;
13592;SDS011;6867;50.998;4.250;2023-08-20T14:48:58;4.32;;;1.08;;
13592;SDS011;6867;50.998;4.250;2023-08-20T14:51:31;2.85;;;1.00;;
13592;SDS011;6867;50.998;4.250;2023-08-20T14:54:01;4.13;;;1.10;;
13592;SDS011;6867;50.998;4.250;2023-08-20T14:56:32;5.25;;;1.30;;
13592;SDS011;6867;50.998;4.250;2023-08-20T14:59:14;3.90;;;1.15;;
13592;SDS011;6867;50.998;4.250;2023-08-20T15:01:43;3.60;;;1.05;;
13592;SDS011;6867;50.998;4.250;2023-08-20T15:04:14;1.75;;;0.98;;
13592;SDS011;6867;50.998;4.250;2023-08-20T15:06:51;3.97;;;1.40;;
13592;SDS011;6867;50.998;4.250;2023-08-20T15:09:25;3.80;;;0.93;;
13592;SDS011;6867;50.998;4.250;2023-08-20T15:11:57;6.07;;;1.30;;
13592;SDS011;6867;50.998;4.250;2023-08-20T15:14:37;4.00;;;1.13;;
13592;SDS011;6867;50.998;4.250;2023-08-20T15:17:09;3.60;;;1.10;;
13592;SDS011;6867;50.998;4.250;2023-08-20T15:19:42;1.55;;;1.10;;
13592;SDS011;6867;50.998;4.250;2023-08-20T15:22:24;3.17;;;1.00;;
13592;SDS011;6867;50.998;4.250;2023-08-20T15:24:53;3.38;;;1.33;;
13592;SDS011;6867;50.998;4.250;2023-08-20T15:27:36;2.00;;;1.08;;
13592;SDS011;6867;50.998;4.250;2023-08-20T15:30:19;2.08;;;1.00;;
13592;SDS011;6867;50.998;4.250;2023-08-20T15:32:53;4.15;;;1.25;;
13592;SDS011;6867;50.998;4.250;2023-08-20T15:35:27;2.63;;;0.90;;
13592;SDS011;6867;50.998;4.250;2023-08-20T15:38:00;2.30;;;1.40;;
13592;SDS011;6867;50.998;4.250;2023-08-20T15:40:51;3.47;;;1.30;;
13592;SDS011;6867;50.998;4.250;2023-08-20T15:43:30;5.60;;;1.52;;
13592;SDS011;6867;50.998;4.250;2023-08-20T15:46:04;5.60;;;1.38;;
13592;SDS011;6867;50.998;4.250;2023-08-20T15:51:23;3.15;;;1.33;;
13592;SDS011;6867;50.998;4.250;2023-08-20T15:54:17;3.28;;;1.27;;
13592;SDS011;6867;50.998;4.250;2023-08-20T15:56:47;2.53;;;1.38;;
13592;SDS011;6867;50.998;4.250;2023-08-20T15:59:16;3.40;;;1.35;;
13592;SDS011;6867;50.998;4.250;2023-08-20T16:01:45;9.75;;;1.60;;
13592;SDS011;6867;50.998;4.250;2023-08-20T16:04:14;3.00;;;1.20;;
13592;SDS011;6867;50.998;4.250;2023-08-20T16:06:50;5.18;;;1.73;;
13592;SDS011;6867;50.998;4.250;2023-08-20T16:09:20;4.15;;;1.60;;
13592;SDS011;6867;50.998;4.250;2023-08-20T16:11:54;5.20;;;1.50;;
13592;SDS011;6867;50.998;4.250;2023-08-20T16:14:23;3.85;;;1.45;;
13592;SDS011;6867;50.998;4.250;2023-08-20T16:19:49;4.65;;;1.48;;
13592;SDS011;6867;50.998;4.250;2023-08-20T16:25:14;3.55;;;1.27;;